sensor_id;sensor_type;location;lat;lon;timestamp;temperature;humidity
4090;DHT22;2059;48.538;12.146;2023-05-07T00:04:41;15.20;99.90
4090;DHT22;2059;48.538;12.146;2023-05-07T00:09:44;15.20;99.90
4090;DHT22;2059;48.538;12.146;2023-05-07T00:14:46;15.20;99.90
4090;DHT22;2059;48.538;12.146;2023-05-07T00:19:47;15.20;99.90
4090;DHT22;2059;48.538;12.146;2023-05-07T00:24:51;15.10;99.90
4090;DHT22;2059;48.538;12.146;2023-05-07T00:29:52;15.10;99.90
4090;DHT22;2059;48.538;12.146;2023-05-07T00:34:54;15.10;99.90
4090;DHT22;2059;48.538;12.146;2023-05-07T00:39:58;15.00;99.90
4090;DHT22;2059;48.538;12.146;2023-05-07T00:45:00;14.90;99.90
4090;DHT22;2059;48.538;12.146;2023-05-07T00:50:02;14.90;99.90
4090;DHT22;2059;48.538;12.146;2023-05-07T00:55:07;14.90;99.90
4090;DHT22;2059;48.538;12.146;2023-05-07T01:00:10;14.90;99.90
4090;DHT22;2059;48.538;12.146;2023-05-07T01:05:15;14.90;99.90
4090;DHT22;2059;48.538;12.146;2023-05-07T01:10:19;14.80;99.90
4090;DHT22;2059;48.538;12.146;2023-05-07T01:15:21;14.80;99.90
4090;DHT22;2059;48.538;12.146;2023-05-07T01:20:23;14.80;99.90
4090;DHT22;2059;48.538;12.146;2023-05-07T01:25:27;14.80;99.90
4090;DHT22;2059;48.538;12.146;2023-05-07T01:30:29;14.70;99.90
4090;DHT22;2059;48.538;12.146;2023-05-07T01:35:35;14.70;99.90
4090;DHT22;2059;48.538;12.146;2023-05-07T01:40:39;14.90;99.90
4090;DHT22;2059;48.538;12.146;2023-05-07T01:45:42;14.90;99.90
4090;DHT22;2059;48.538;12.146;2023-05-07T01:50:45;14.80;99.90
4090;DHT22;2059;48.538;12.146;2023-05-07T01:55:49;14.70;99.90
4090;DHT22;2059;48.538;12.146;2023-05-07T02:00:50;14.80;99.90
4090;DHT22;2059;48.538;12.146;2023-05-07T02:05:52;14.70;99.90
4090;DHT22;2059;48.538;12.146;2023-05-07T02:10:55;14.70;99.90
4090;DHT22;2059;48.538;12.146;2023-05-07T02:15:57;14.70;99.90
4090;DHT22;2059;48.538;12.146;2023-05-07T02:20:59;14.70;99.90
4090;DHT22;2059;48.538;12.146;2023-05-07T02:26:04;14.60;99.90
4090;DHT22;2059;48.538;12.146;2023-05-07T02:31:06;14.60;99.90
4090;DHT22;2059;48.538;12.146;2023-05-07T02:36:08;14.50;99.90
4090;DHT22;2059;48.538;12.146;2023-05-07T02:41:12;14.50;99.90
4090;DHT22;2059;48.538;12.146;2023-05-07T02:46:13;14.40;99.90
4090;DHT22;2059;48.538;12.146;2023-05-07T02:51:19;14.40;99.90
4090;DHT22;2059;48.538;12.146;2023-05-07T02:56:22;14.30;99.90
4090;DHT22;2059;48.538;12.146;2023-05-07T03:01:24;14.30;99.90
4090;DHT22;2059;48.538;12.146;2023-05-07T03:06:26;14.40;99.90
4090;DHT22;2059;48.538;12.146;2023-05-07T03:11:29;14.30;99.90
4090;DHT22;2059;48.538;12.146;2023-05-07T03:16:31;14.20;99.90
4090;DHT22;2059;48.538;12.146;2023-05-07T03:21:33;14.20;99.90
4090;DHT22;2059;48.538;12.146;2023-05-07T03:26:36;14.20;99.90
4090;DHT22;2059;48.538;12.146;2023-05-07T03:31:38;14.20;99.90
4090;DHT22;2059;48.538;12.146;2023-05-07T03:36:40;14.10;99.90
4090;DHT22;2059;48.538;12.146;2023-05-07T03:41:43;14.10;99.90
4090;DHT22;2059;48.538;12.146;2023-05-07T03:46:45;14.10;99.90
4090;DHT22;2059;48.538;12.146;2023-05-07T03:51:46;14.00;99.90
4090;DHT22;2059;48.538;12.146;2023-05-07T03:56:50;14.00;99.90
4090;DHT22;2059;48.538;12.146;2023-05-07T04:01:51;14.00;99.90
4090;DHT22;2059;48.538;12.146;2023-05-07T04:06:53;14.10;99.90
4090;DHT22;2059;48.538;12.146;2023-05-07T04:11:56;13.90;99.90
4090;DHT22;2059;48.538;12.146;2023-05-07T04:16:58;14.00;99.90
4090;DHT22;2059;48.538;12.146;2023-05-07T04:22:00;14.10;99.90
4090;DHT22;2059;48.538;12.146;2023-05-07T04:27:03;14.20;99.90
4090;DHT22;2059;48.538;12.146;2023-05-07T04:32:06;14.10;99.90
4090;DHT22;2059;48.538;12.146;2023-05-07T04:37:08;14.10;99.90
4090;DHT22;2059;48.538;12.146;2023-05-07T04:42:15;14.10;99.90
4090;DHT22;2059;48.538;12.146;2023-05-07T04:47:18;14.10;99.90
4090;DHT22;2059;48.538;12.146;2023-05-07T04:52:19;14.30;99.90
4090;DHT22;2059;48.538;12.146;2023-05-07T04:57:23;14.30;99.90
4090;DHT22;2059;48.538;12.146;2023-05-07T05:02:24;14.30;99.90
4090;DHT22;2059;48.538;12.146;2023-05-07T05:07:26;14.50;99.90
4090;DHT22;2059;48.538;12.146;2023-05-07T05:12:29;14.60;99.90
4090;DHT22;2059;48.538;12.146;2023-05-07T05:17:31;14.70;99.90
4090;DHT22;2059;48.538;12.146;2023-05-07T05:22:34;14.70;99.90
4090;DHT22;2059;48.538;12.146;2023-05-07T05:27:37;14.90;99.90
4090;DHT22;2059;48.538;12.146;2023-05-07T05:32:39;15.10;99.90
4090;DHT22;2059;48.538;12.146;2023-05-07T05:37:41;15.20;99.90
4090;DHT22;2059;48.538;12.146;2023-05-07T05:42:44;15.40;99.90
4090;DHT22;2059;48.538;12.146;2023-05-07T05:47:46;15.70;99.90
4090;DHT22;2059;48.538;12.146;2023-05-07T05:52:48;15.90;99.90
4090;DHT22;2059;48.538;12.146;2023-05-07T05:57:51;16.00;99.90
4090;DHT22;2059;48.538;12.146;2023-05-07T06:02:53;16.10;99.90
4090;DHT22;2059;48.538;12.146;2023-05-07T06:07:55;16.20;99.90
4090;DHT22;2059;48.538;12.146;2023-05-07T06:12:58;16.30;99.90
4090;DHT22;2059;48.538;12.146;2023-05-07T06:18:00;16.40;99.90
4090;DHT22;2059;48.538;12.146;2023-05-07T06:23:02;16.60;99.90
4090;DHT22;2059;48.538;12.146;2023-05-07T06:28:06;16.80;99.90
4090;DHT22;2059;48.538;12.146;2023-05-07T06:33:08;17.30;99.90
4090;DHT22;2059;48.538;12.146;2023-05-07T06:38:10;17.60;99.90
4090;DHT22;2059;48.538;12.146;2023-05-07T06:43:14;17.90;99.90
4090;DHT22;2059;48.538;12.146;2023-05-07T06:48:15;18.20;99.90
4090;DHT22;2059;48.538;12.146;2023-05-07T06:53:17;18.30;99.90
4090;DHT22;2059;48.538;12.146;2023-05-07T06:58:20;18.20;99.90
4090;DHT22;2059;48.538;12.146;2023-05-07T07:03:22;18.10;99.90
4090;DHT22;2059;48.538;12.146;2023-05-07T07:08:24;18.10;99.90
4090;DHT22;2059;48.538;12.146;2023-05-07T07:13:27;18.50;99.90
4090;DHT22;2059;48.538;12.146;2023-05-07T07:18:29;19.00;99.90
4090;DHT22;2059;48.538;12.146;2023-05-07T07:23:31;19.40;99.90
4090;DHT22;2059;48.538;12.146;2023-05-07T07:28:34;19.80;99.90
4090;DHT22;2059;48.538;12.146;2023-05-07T07:33:36;20.10;99.60
4090;DHT22;2059;48.538;12.146;2023-05-07T07:38:37;20.40;99.20
4090;DHT22;2059;48.538;12.146;2023-05-07T07:43:40;20.70;98.90
4090;DHT22;2059;48.538;12.146;2023-05-07T07:48:42;20.90;98.90
4090;DHT22;2059;48.538;12.146;2023-05-07T07:53:44;21.00;99.00
4090;DHT22;2059;48.538;12.146;2023-05-07T07:58:47;20.90;99.40
4090;DHT22;2059;48.538;12.146;2023-05-07T08:03:49;21.30;98.70
4090;DHT22;2059;48.538;12.146;2023-05-07T08:08:51;21.50;98.50
4090;DHT22;2059;48.538;12.146;2023-05-07T08:13:54;21.70;98.00
4090;DHT22;2059;48.538;12.146;2023-05-07T08:18:56;22.00;97.50
4090;DHT22;2059;48.538;12.146;2023-05-07T08:23:58;22.20;97.30
4090;DHT22;2059;48.538;12.146;2023-05-07T08:29:01;22.40;97.30
4090;DHT22;2059;48.538;12.146;2023-05-07T08:34:03;22.70;96.50
4090;DHT22;2059;48.538;12.146;2023-05-07T08:39:05;22.80;96.30
4090;DHT22;2059;48.538;12.146;2023-05-07T08:44:12;23.00;96.50
4090;DHT22;2059;48.538;12.146;2023-05-07T08:49:15;23.30;95.80
4090;DHT22;2059;48.538;12.146;2023-05-07T08:54:16;23.40;96.00
4090;DHT22;2059;48.538;12.146;2023-05-07T08:59:21;23.80;95.90
4090;DHT22;2059;48.538;12.146;2023-05-07T09:04:23;23.90;95.10
4090;DHT22;2059;48.538;12.146;2023-05-07T09:09:26;23.90;94.60
4090;DHT22;2059;48.538;12.146;2023-05-07T09:14:30;23.50;94.60
4090;DHT22;2059;48.538;12.146;2023-05-07T09:19:32;23.40;95.20
4090;DHT22;2059;48.538;12.146;2023-05-07T09:24:33;24.00;95.30
4090;DHT22;2059;48.538;12.146;2023-05-07T09:29:39;23.70;93.90
4090;DHT22;2059;48.538;12.146;2023-05-07T09:34:41;23.60;94.60
4090;DHT22;2059;48.538;12.146;2023-05-07T09:39:44;24.30;93.20
4090;DHT22;2059;48.538;12.146;2023-05-07T09:44:48;24.90;92.00
4090;DHT22;2059;48.538;12.146;2023-05-07T09:49:50;25.30;90.80
4090;DHT22;2059;48.538;12.146;2023-05-07T09:54:55;25.50;90.10
4090;DHT22;2059;48.538;12.146;2023-05-07T10:00:02;26.00;89.50
4090;DHT22;2059;48.538;12.146;2023-05-07T10:05:05;26.60;86.80
4090;DHT22;2059;48.538;12.146;2023-05-07T10:10:08;26.50;83.90
4090;DHT22;2059;48.538;12.146;2023-05-07T10:15:11;25.60;84.70
4090;DHT22;2059;48.538;12.146;2023-05-07T10:20:14;24.80;86.30
4090;DHT22;2059;48.538;12.146;2023-05-07T10:25:18;24.20;86.80
4090;DHT22;2059;48.538;12.146;2023-05-07T10:30:29;24.30;84.30
4090;DHT22;2059;48.538;12.146;2023-05-07T10:35:38;24.50;83.90
4090;DHT22;2059;48.538;12.146;2023-05-07T10:40:41;25.40;81.80
4090;DHT22;2059;48.538;12.146;2023-05-07T10:46:14;25.90;84.40
4090;DHT22;2059;48.538;12.146;2023-05-07T10:51:20;26.00;84.90
4090;DHT22;2059;48.538;12.146;2023-05-07T10:56:26;25.90;85.90
4090;DHT22;2059;48.538;12.146;2023-05-07T11:01:52;26.10;85.40
4090;DHT22;2059;48.538;12.146;2023-05-07T11:07:26;26.30;84.40
4090;DHT22;2059;48.538;12.146;2023-05-07T11:12:50;25.50;84.80
4090;DHT22;2059;48.538;12.146;2023-05-07T11:17:55;24.80;86.50
4090;DHT22;2059;48.538;12.146;2023-05-07T11:22:57;24.70;87.40
4090;DHT22;2059;48.538;12.146;2023-05-07T11:28:05;24.60;86.30
4090;DHT22;2059;48.538;12.146;2023-05-07T11:33:08;24.30;87.50
4090;DHT22;2059;48.538;12.146;2023-05-07T11:38:10;24.10;88.70
4090;DHT22;2059;48.538;12.146;2023-05-07T11:43:12;24.40;86.70
4090;DHT22;2059;48.538;12.146;2023-05-07T11:48:16;25.00;83.30
4090;DHT22;2059;48.538;12.146;2023-05-07T11:53:18;26.00;82.60
4090;DHT22;2059;48.538;12.146;2023-05-07T11:58:22;26.90;78.10
4090;DHT22;2059;48.538;12.146;2023-05-07T12:03:25;27.40;75.70
4090;DHT22;2059;48.538;12.146;2023-05-07T12:08:27;27.50;73.10
4090;DHT22;2059;48.538;12.146;2023-05-07T12:13:29;27.70;72.20
4090;DHT22;2059;48.538;12.146;2023-05-07T12:18:33;28.20;70.90
4090;DHT22;2059;48.538;12.146;2023-05-07T12:23:36;28.60;69.80
4090;DHT22;2059;48.538;12.146;2023-05-07T12:28:38;28.20;68.70
4090;DHT22;2059;48.538;12.146;2023-05-07T12:33:42;28.20;69.90
4090;DHT22;2059;48.538;12.146;2023-05-07T12:38:43;28.10;70.90
4090;DHT22;2059;48.538;12.146;2023-05-07T12:43:46;27.40;72.30
4090;DHT22;2059;48.538;12.146;2023-05-07T12:48:49;27.60;71.60
4090;DHT22;2059;48.538;12.146;2023-05-07T12:53:51;27.40;71.60
4090;DHT22;2059;48.538;12.146;2023-05-07T12:58:57;27.00;72.40
4090;DHT22;2059;48.538;12.146;2023-05-07T13:04:03;26.40;73.60
4090;DHT22;2059;48.538;12.146;2023-05-07T13:09:06;25.90;73.20
4090;DHT22;2059;48.538;12.146;2023-05-07T13:14:08;25.60;74.80
4090;DHT22;2059;48.538;12.146;2023-05-07T13:19:11;25.60;74.50
4090;DHT22;2059;48.538;12.146;2023-05-07T13:24:13;25.50;73.30
4090;DHT22;2059;48.538;12.146;2023-05-07T13:29:14;25.60;73.50
4090;DHT22;2059;48.538;12.146;2023-05-07T13:34:18;25.70;74.10
4090;DHT22;2059;48.538;12.146;2023-05-07T13:39:20;25.90;73.80
4090;DHT22;2059;48.538;12.146;2023-05-07T13:44:21;26.00;73.20
4090;DHT22;2059;48.538;12.146;2023-05-07T13:49:24;26.10;73.80
4090;DHT22;2059;48.538;12.146;2023-05-07T13:54:26;26.40;72.30
4090;DHT22;2059;48.538;12.146;2023-05-07T13:59:28;26.30;72.80
4090;DHT22;2059;48.538;12.146;2023-05-07T14:04:32;26.30;72.60
4090;DHT22;2059;48.538;12.146;2023-05-07T14:09:33;26.30;72.00
4090;DHT22;2059;48.538;12.146;2023-05-07T14:14:35;26.70;72.20
4090;DHT22;2059;48.538;12.146;2023-05-07T14:19:38;26.90;70.10
4090;DHT22;2059;48.538;12.146;2023-05-07T14:24:40;27.10;69.40
4090;DHT22;2059;48.538;12.146;2023-05-07T14:29:42;27.20;70.50
4090;DHT22;2059;48.538;12.146;2023-05-07T14:34:47;27.30;70.40
4090;DHT22;2059;48.538;12.146;2023-05-07T14:39:49;27.50;69.40
4090;DHT22;2059;48.538;12.146;2023-05-07T14:44:50;27.20;69.50
4090;DHT22;2059;48.538;12.146;2023-05-07T14:49:54;27.10;70.30
4090;DHT22;2059;48.538;12.146;2023-05-07T14:54:57;27.00;68.60
4090;DHT22;2059;48.538;12.146;2023-05-07T14:59:59;26.80;70.10
4090;DHT22;2059;48.538;12.146;2023-05-07T15:05:02;26.80;67.60
4090;DHT22;2059;48.538;12.146;2023-05-07T15:10:05;26.90;68.30
4090;DHT22;2059;48.538;12.146;2023-05-07T15:15:08;27.20;69.20
4090;DHT22;2059;48.538;12.146;2023-05-07T15:20:12;27.20;67.50
4090;DHT22;2059;48.538;12.146;2023-05-07T15:25:13;26.90;68.10
4090;DHT22;2059;48.538;12.146;2023-05-07T15:30:15;26.60;68.80
4090;DHT22;2059;48.538;12.146;2023-05-07T15:35:19;26.70;67.90
4090;DHT22;2059;48.538;12.146;2023-05-07T15:40:22;26.50;68.80
4090;DHT22;2059;48.538;12.146;2023-05-07T15:45:24;26.60;69.10
4090;DHT22;2059;48.538;12.146;2023-05-07T15:50:27;26.50;68.60
4090;DHT22;2059;48.538;12.146;2023-05-07T15:55:29;26.50;70.40
4090;DHT22;2059;48.538;12.146;2023-05-07T16:00:31;26.70;69.50
4090;DHT22;2059;48.538;12.146;2023-05-07T16:05:37;26.50;71.00
4090;DHT22;2059;48.538;12.146;2023-05-07T16:10:39;25.90;74.70
4090;DHT22;2059;48.538;12.146;2023-05-07T16:15:40;25.40;76.60
4090;DHT22;2059;48.538;12.146;2023-05-07T16:20:45;25.00;78.40
4090;DHT22;2059;48.538;12.146;2023-05-07T16:25:47;24.70;80.00
4090;DHT22;2059;48.538;12.146;2023-05-07T16:30:49;24.60;80.40
4090;DHT22;2059;48.538;12.146;2023-05-07T16:35:53;24.50;80.90
4090;DHT22;2059;48.538;12.146;2023-05-07T16:40:54;24.40;81.40
4090;DHT22;2059;48.538;12.146;2023-05-07T16:45:57;24.10;82.70
4090;DHT22;2059;48.538;12.146;2023-05-07T16:51:00;23.90;83.20
4090;DHT22;2059;48.538;12.146;2023-05-07T16:56:04;23.50;83.80
4090;DHT22;2059;48.538;12.146;2023-05-07T17:01:05;23.30;84.80
4090;DHT22;2059;48.538;12.146;2023-05-07T17:06:09;23.00;85.90
4090;DHT22;2059;48.538;12.146;2023-05-07T17:11:14;22.80;86.30
4090;DHT22;2059;48.538;12.146;2023-05-07T17:16:16;22.70;87.40
4090;DHT22;2059;48.538;12.146;2023-05-07T17:21:19;22.50;87.80
4090;DHT22;2059;48.538;12.146;2023-05-07T17:26:21;22.30;88.60
4090;DHT22;2059;48.538;12.146;2023-05-07T17:31:23;22.20;89.00
4090;DHT22;2059;48.538;12.146;2023-05-07T17:36:26;22.00;89.40
4090;DHT22;2059;48.538;12.146;2023-05-07T17:41:28;21.90;89.90
4090;DHT22;2059;48.538;12.146;2023-05-07T17:46:30;21.80;90.30
4090;DHT22;2059;48.538;12.146;2023-05-07T17:51:33;21.70;90.30
4090;DHT22;2059;48.538;12.146;2023-05-07T17:56:36;21.60;90.70
4090;DHT22;2059;48.538;12.146;2023-05-07T18:01:38;21.40;91.10
4090;DHT22;2059;48.538;12.146;2023-05-07T18:06:42;21.30;91.50
4090;DHT22;2059;48.538;12.146;2023-05-07T18:11:44;21.20;91.60
4090;DHT22;2059;48.538;12.146;2023-05-07T18:16:46;21.00;91.90
4090;DHT22;2059;48.538;12.146;2023-05-07T18:21:49;20.90;92.50
4090;DHT22;2059;48.538;12.146;2023-05-07T18:26:52;20.80;92.60
4090;DHT22;2059;48.538;12.146;2023-05-07T18:31:54;20.80;92.20
4090;DHT22;2059;48.538;12.146;2023-05-07T18:36:57;20.60;92.60
4090;DHT22;2059;48.538;12.146;2023-05-07T18:41:59;20.40;92.70
4090;DHT22;2059;48.538;12.146;2023-05-07T18:47:00;20.40;93.00
4090;DHT22;2059;48.538;12.146;2023-05-07T18:52:04;20.40;92.80
4090;DHT22;2059;48.538;12.146;2023-05-07T18:57:05;20.40;92.90
4090;DHT22;2059;48.538;12.146;2023-05-07T19:02:07;20.10;93.40
4090;DHT22;2059;48.538;12.146;2023-05-07T19:07:11;20.10;93.80
4090;DHT22;2059;48.538;12.146;2023-05-07T19:12:12;20.00;94.10
4090;DHT22;2059;48.538;12.146;2023-05-07T19:17:14;19.90;94.10
4090;DHT22;2059;48.538;12.146;2023-05-07T19:22:17;19.80;94.00
4090;DHT22;2059;48.538;12.146;2023-05-07T19:27:19;19.70;94.20
4090;DHT22;2059;48.538;12.146;2023-05-07T19:32:21;19.60;94.30
4090;DHT22;2059;48.538;12.146;2023-05-07T19:37:24;19.60;94.40
4090;DHT22;2059;48.538;12.146;2023-05-07T19:42:27;19.60;94.40
4090;DHT22;2059;48.538;12.146;2023-05-07T19:47:29;19.50;94.20
4090;DHT22;2059;48.538;12.146;2023-05-07T19:52:32;19.50;94.10
4090;DHT22;2059;48.538;12.146;2023-05-07T19:57:34;19.40;93.70
4090;DHT22;2059;48.538;12.146;2023-05-07T20:02:36;19.40;93.40
4090;DHT22;2059;48.538;12.146;2023-05-07T20:07:40;19.40;92.60
4090;DHT22;2059;48.538;12.146;2023-05-07T20:12:42;19.30;92.80
4090;DHT22;2059;48.538;12.146;2023-05-07T20:17:44;19.30;92.40
4090;DHT22;2059;48.538;12.146;2023-05-07T20:22:47;19.10;92.60
4090;DHT22;2059;48.538;12.146;2023-05-07T20:27:49;19.00;92.90
4090;DHT22;2059;48.538;12.146;2023-05-07T20:32:51;18.90;92.80
4090;DHT22;2059;48.538;12.146;2023-05-07T20:37:54;18.90;92.50
4090;DHT22;2059;48.538;12.146;2023-05-07T20:42:56;18.80;92.50
4090;DHT22;2059;48.538;12.146;2023-05-07T20:47:58;18.80;92.50
4090;DHT22;2059;48.538;12.146;2023-05-07T20:53:01;18.70;92.50
4090;DHT22;2059;48.538;12.146;2023-05-07T20:58:03;18.70;92.40
4090;DHT22;2059;48.538;12.146;2023-05-07T21:03:05;18.70;92.80
4090;DHT22;2059;48.538;12.146;2023-05-07T21:08:08;18.70;92.20
4090;DHT22;2059;48.538;12.146;2023-05-07T21:13:10;18.70;92.10
4090;DHT22;2059;48.538;12.146;2023-05-07T21:18:12;18.70;91.70
4090;DHT22;2059;48.538;12.146;2023-05-07T21:23:15;18.70;92.00
4090;DHT22;2059;48.538;12.146;2023-05-07T21:28:17;18.60;92.10
4090;DHT22;2059;48.538;12.146;2023-05-07T21:33:19;18.70;91.40
4090;DHT22;2059;48.538;12.146;2023-05-07T21:38:22;18.50;91.70
4090;DHT22;2059;48.538;12.146;2023-05-07T21:43:24;18.50;91.80
4090;DHT22;2059;48.538;12.146;2023-05-07T21:53:58;18.30;91.80
4090;DHT22;2059;48.538;12.146;2023-05-07T21:59:00;18.20;92.10
4090;DHT22;2059;48.538;12.146;2023-05-07T22:04:02;18.10;92.10
4090;DHT22;2059;48.538;12.146;2023-05-07T22:09:05;17.90;92.20
4090;DHT22;2059;48.538;12.146;2023-05-07T22:14:07;17.90;92.60
4090;DHT22;2059;48.538;12.146;2023-05-07T22:19:09;17.80;92.60
4090;DHT22;2059;48.538;12.146;2023-05-07T22:24:12;17.80;92.80
4090;DHT22;2059;48.538;12.146;2023-05-07T22:29:14;17.70;92.90
4090;DHT22;2059;48.538;12.146;2023-05-07T22:34:16;17.60;93.40
4090;DHT22;2059;48.538;12.146;2023-05-07T22:39:19;17.60;93.40
4090;DHT22;2059;48.538;12.146;2023-05-07T22:44:21;17.70;93.60
4090;DHT22;2059;48.538;12.146;2023-05-07T22:49:23;17.50;93.50
4090;DHT22;2059;48.538;12.146;2023-05-07T22:54:26;17.50;93.60
4090;DHT22;2059;48.538;12.146;2023-05-07T22:59:28;17.40;93.60
4090;DHT22;2059;48.538;12.146;2023-05-07T23:04:30;17.40;93.90
4090;DHT22;2059;48.538;12.146;2023-05-07T23:09:33;17.40;93.70
4090;DHT22;2059;48.538;12.146;2023-05-07T23:14:35;17.30;94.00
4090;DHT22;2059;48.538;12.146;2023-05-07T23:19:37;17.30;94.00
4090;DHT22;2059;48.538;12.146;2023-05-07T23:24:40;17.30;93.80
4090;DHT22;2059;48.538;12.146;2023-05-07T23:29:44;17.30;93.80
4090;DHT22;2059;48.538;12.146;2023-05-07T23:34:48;17.20;94.20
4090;DHT22;2059;48.538;12.146;2023-05-07T23:39:53;17.20;94.60
4090;DHT22;2059;48.538;12.146;2023-05-07T23:44:55;17.10;94.50
4090;DHT22;2059;48.538;12.146;2023-05-07T23:49:57;17.10;94.50
4090;DHT22;2059;48.538;12.146;2023-05-07T23:55:00;17.10;94.70
